sensor_id;sensor_type;location;lat;lon;timestamp;P1;durP1;ratioP1;P2;durP2;ratioP2
11865;SDS011;5992;52.744;6.898;2023-04-29T00:02:31;14.25;;;11.80;;
11865;SDS011;5992;52.744;6.898;2023-04-29T00:05:55;14.37;;;11.93;;
11865;SDS011;5992;52.744;6.898;2023-04-29T00:08:57;19.33;;;13.03;;
11865;SDS011;5992;52.744;6.898;2023-04-29T00:12:10;15.90;;;12.85;;
11865;SDS011;5992;52.744;6.898;2023-04-29T00:15:11;17.45;;;13.30;;
11865;SDS011;5992;52.744;6.898;2023-04-29T00:18:27;13.80;;;11.50;;
11865;SDS011;5992;52.744;6.898;2023-04-29T00:21:39;13.60;;;11.40;;
11865;SDS011;5992;52.744;6.898;2023-04-29T00:24:52;16.13;;;12.90;;
11865;SDS011;5992;52.744;6.898;2023-04-29T00:27:53;16.83;;;12.53;;
11865;SDS011;5992;52.744;6.898;2023-04-29T00:31:17;16.07;;;11.53;;
11865;SDS011;5992;52.744;6.898;2023-04-29T00:34:20;14.27;;;12.03;;
11865;SDS011;5992;52.744;6.898;2023-04-29T00:37:44;14.80;;;12.30;;
11865;SDS011;5992;52.744;6.898;2023-04-29T00:40:45;15.80;;;11.80;;
11865;SDS011;5992;52.744;6.898;2023-04-29T00:44:09;15.90;;;12.70;;
11865;SDS011;5992;52.744;6.898;2023-04-29T00:47:10;12.80;;;10.95;;
11865;SDS011;5992;52.744;6.898;2023-04-29T00:50:26;14.80;;;11.83;;
11865;SDS011;5992;52.744;6.898;2023-04-29T00:53:38;16.10;;;11.75;;
11865;SDS011;5992;52.744;6.898;2023-04-29T00:57:02;15.77;;;11.93;;
11865;SDS011;5992;52.744;6.898;2023-04-29T01:00:15;15.97;;;11.03;;
11865;SDS011;5992;52.744;6.898;2023-04-29T01:03:40;16.10;;;11.40;;
11865;SDS011;5992;52.744;6.898;2023-04-29T01:06:56;15.63;;;11.83;;
11865;SDS011;5992;52.744;6.898;2023-04-29T01:10:32;14.03;;;10.53;;
11865;SDS011;5992;52.744;6.898;2023-04-29T01:13:58;13.55;;;10.75;;
11865;SDS011;5992;52.744;6.898;2023-04-29T01:17:22;16.45;;;11.60;;
11865;SDS011;5992;52.744;6.898;2023-04-29T01:20:33;16.60;;;12.30;;
11865;SDS011;5992;52.744;6.898;2023-04-29T01:23:59;15.05;;;11.95;;
11865;SDS011;5992;52.744;6.898;2023-04-29T01:27:16;15.15;;;11.40;;
11865;SDS011;5992;52.744;6.898;2023-04-29T01:30:44;15.47;;;11.87;;
11865;SDS011;5992;52.744;6.898;2023-04-29T01:33:58;17.73;;;12.90;;
11865;SDS011;5992;52.744;6.898;2023-04-29T01:37:27;17.97;;;13.53;;
11865;SDS011;5992;52.744;6.898;2023-04-29T01:40:49;16.63;;;12.53;;
11865;SDS011;5992;52.744;6.898;2023-04-29T01:44:14;17.90;;;12.53;;
11865;SDS011;5992;52.744;6.898;2023-04-29T01:47:37;19.07;;;13.87;;
11865;SDS011;5992;52.744;6.898;2023-04-29T01:51:02;17.05;;;13.15;;
11865;SDS011;5992;52.744;6.898;2023-04-29T01:54:16;17.37;;;12.77;;
11865;SDS011;5992;52.744;6.898;2023-04-29T01:57:31;19.40;;;12.50;;
11865;SDS011;5992;52.744;6.898;2023-04-29T02:00:56;17.23;;;13.07;;
11865;SDS011;5992;52.744;6.898;2023-04-29T02:04:09;17.87;;;13.00;;
11865;SDS011;5992;52.744;6.898;2023-04-29T02:07:22;20.33;;;12.50;;
11865;SDS011;5992;52.744;6.898;2023-04-29T02:10:35;16.65;;;12.70;;
11865;SDS011;5992;52.744;6.898;2023-04-29T02:14:00;19.05;;;13.45;;
11865;SDS011;5992;52.744;6.898;2023-04-29T02:17:25;17.37;;;13.10;;
11865;SDS011;5992;52.744;6.898;2023-04-29T02:20:38;19.80;;;13.30;;
11865;SDS011;5992;52.744;6.898;2023-04-29T02:24:03;19.47;;;12.63;;
11865;SDS011;5992;52.744;6.898;2023-04-29T02:27:04;16.33;;;12.47;;
11865;SDS011;5992;52.744;6.898;2023-04-29T02:30:29;17.60;;;12.85;;
11865;SDS011;5992;52.744;6.898;2023-04-29T02:33:54;15.60;;;12.05;;
11865;SDS011;5992;52.744;6.898;2023-04-29T02:37:07;17.60;;;12.07;;
11865;SDS011;5992;52.744;6.898;2023-04-29T02:40:09;19.00;;;12.23;;
11865;SDS011;5992;52.744;6.898;2023-04-29T02:43:22;15.95;;;11.55;;
11865;SDS011;5992;52.744;6.898;2023-04-29T02:46:24;18.17;;;13.00;;
11865;SDS011;5992;52.744;6.898;2023-04-29T02:49:50;16.37;;;11.47;;
11865;SDS011;5992;52.744;6.898;2023-04-29T02:53:03;17.10;;;13.43;;
11865;SDS011;5992;52.744;6.898;2023-04-29T02:56:16;16.13;;;11.73;;
11865;SDS011;5992;52.744;6.898;2023-04-29T02:59:29;16.80;;;12.35;;
11865;SDS011;5992;52.744;6.898;2023-04-29T03:02:43;15.00;;;11.90;;
11865;SDS011;5992;52.744;6.898;2023-04-29T03:06:08;17.30;;;12.87;;
11865;SDS011;5992;52.744;6.898;2023-04-29T03:09:21;15.10;;;11.30;;
11865;SDS011;5992;52.744;6.898;2023-04-29T03:12:34;18.15;;;12.40;;
11865;SDS011;5992;52.744;6.898;2023-04-29T03:15:47;18.90;;;12.20;;
11865;SDS011;5992;52.744;6.898;2023-04-29T03:19:12;14.65;;;11.60;;
11865;SDS011;5992;52.744;6.898;2023-04-29T03:22:41;13.53;;;10.23;;
11865;SDS011;5992;52.744;6.898;2023-04-29T03:25:57;15.10;;;10.70;;
11865;SDS011;5992;52.744;6.898;2023-04-29T03:29:10;13.70;;;10.73;;
11865;SDS011;5992;52.744;6.898;2023-04-29T03:32:23;15.00;;;11.30;;
11865;SDS011;5992;52.744;6.898;2023-04-29T03:35:38;18.07;;;10.63;;
11865;SDS011;5992;52.744;6.898;2023-04-29T03:39:03;16.55;;;11.00;;
11865;SDS011;5992;52.744;6.898;2023-04-29T03:42:17;13.57;;;10.67;;
11865;SDS011;5992;52.744;6.898;2023-04-29T03:45:41;17.50;;;11.60;;
11865;SDS011;5992;52.744;6.898;2023-04-29T03:48:57;14.87;;;10.70;;
11865;SDS011;5992;52.744;6.898;2023-04-29T03:51:58;13.75;;;10.50;;
11865;SDS011;5992;52.744;6.898;2023-04-29T03:55:24;18.23;;;10.83;;
11865;SDS011;5992;52.744;6.898;2023-04-29T03:58:37;14.35;;;10.80;;
11865;SDS011;5992;52.744;6.898;2023-04-29T04:01:51;15.70;;;10.63;;
11865;SDS011;5992;52.744;6.898;2023-04-29T04:05:04;16.17;;;10.90;;
11865;SDS011;5992;52.744;6.898;2023-04-29T04:08:31;17.53;;;11.67;;
11865;SDS011;5992;52.744;6.898;2023-04-29T04:11:56;17.65;;;10.35;;
11865;SDS011;5992;52.744;6.898;2023-04-29T04:15:00;15.20;;;10.90;;
11865;SDS011;5992;52.744;6.898;2023-04-29T04:18:14;16.05;;;11.00;;
11865;SDS011;5992;52.744;6.898;2023-04-29T04:21:27;14.87;;;10.83;;
11865;SDS011;5992;52.744;6.898;2023-04-29T04:24:41;17.50;;;11.13;;
11865;SDS011;5992;52.744;6.898;2023-04-29T04:28:05;18.65;;;11.10;;
11865;SDS011;5992;52.744;6.898;2023-04-29T04:31:18;15.05;;;10.60;;
11865;SDS011;5992;52.744;6.898;2023-04-29T04:34:31;17.57;;;11.57;;
11865;SDS011;5992;52.744;6.898;2023-04-29T04:37:44;13.90;;;10.60;;
11865;SDS011;5992;52.744;6.898;2023-04-29T04:40:58;15.20;;;10.47;;
11865;SDS011;5992;52.744;6.898;2023-04-29T04:44:23;18.43;;;10.53;;
11865;SDS011;5992;52.744;6.898;2023-04-29T04:47:39;14.43;;;10.13;;
11865;SDS011;5992;52.744;6.898;2023-04-29T04:51:06;12.30;;;9.00;;
11865;SDS011;5992;52.744;6.898;2023-04-29T04:54:30;14.27;;;9.60;;
11865;SDS011;5992;52.744;6.898;2023-04-29T04:57:45;13.95;;;9.95;;
11865;SDS011;5992;52.744;6.898;2023-04-29T05:01:10;12.07;;;9.17;;
11865;SDS011;5992;52.744;6.898;2023-04-29T05:04:37;15.30;;;9.95;;
11865;SDS011;5992;52.744;6.898;2023-04-29T05:07:50;15.40;;;9.20;;
11865;SDS011;5992;52.744;6.898;2023-04-29T05:11:04;10.85;;;8.80;;
11865;SDS011;5992;52.744;6.898;2023-04-29T05:14:19;15.53;;;9.10;;
11865;SDS011;5992;52.744;6.898;2023-04-29T05:17:44;13.30;;;9.55;;
11865;SDS011;5992;52.744;6.898;2023-04-29T05:20:57;12.00;;;9.10;;
11865;SDS011;5992;52.744;6.898;2023-04-29T05:24:10;12.67;;;8.47;;
11865;SDS011;5992;52.744;6.898;2023-04-29T05:27:34;12.43;;;8.43;;
11865;SDS011;5992;52.744;6.898;2023-04-29T05:30:50;15.55;;;8.65;;
11865;SDS011;5992;52.744;6.898;2023-04-29T05:34:14;14.00;;;9.10;;
11865;SDS011;5992;52.744;6.898;2023-04-29T05:37:28;11.13;;;9.20;;
11865;SDS011;5992;52.744;6.898;2023-04-29T05:40:41;14.37;;;8.47;;
11865;SDS011;5992;52.744;6.898;2023-04-29T05:43:54;12.47;;;8.53;;
11865;SDS011;5992;52.744;6.898;2023-04-29T05:46:57;10.65;;;7.65;;
11865;SDS011;5992;52.744;6.898;2023-04-29T05:50:21;10.37;;;7.93;;
11865;SDS011;5992;52.744;6.898;2023-04-29T05:53:23;12.00;;;7.97;;
11865;SDS011;5992;52.744;6.898;2023-04-29T05:56:36;13.07;;;8.27;;
11865;SDS011;5992;52.744;6.898;2023-04-29T05:59:49;10.67;;;7.67;;
11865;SDS011;5992;52.744;6.898;2023-04-29T06:03:05;8.67;;;7.07;;
11865;SDS011;5992;52.744;6.898;2023-04-29T06:06:29;14.95;;;7.85;;
11865;SDS011;5992;52.744;6.898;2023-04-29T06:09:44;12.07;;;7.07;;
11865;SDS011;5992;52.744;6.898;2023-04-29T06:12:59;12.70;;;7.50;;
11865;SDS011;5992;52.744;6.898;2023-04-29T06:16:12;12.35;;;7.30;;
11865;SDS011;5992;52.744;6.898;2023-04-29T06:19:14;10.33;;;7.10;;
11865;SDS011;5992;52.744;6.898;2023-04-29T06:22:38;8.43;;;6.83;;
11865;SDS011;5992;52.744;6.898;2023-04-29T06:26:02;8.73;;;6.40;;
11865;SDS011;5992;52.744;6.898;2023-04-29T06:29:15;9.77;;;6.80;;
11865;SDS011;5992;52.744;6.898;2023-04-29T06:32:27;8.27;;;6.40;;
11865;SDS011;5992;52.744;6.898;2023-04-29T06:35:43;11.30;;;6.83;;
11865;SDS011;5992;52.744;6.898;2023-04-29T06:39:07;9.75;;;7.10;;
11865;SDS011;5992;52.744;6.898;2023-04-29T06:42:21;9.33;;;6.50;;
11865;SDS011;5992;52.744;6.898;2023-04-29T06:45:35;9.65;;;7.15;;
11865;SDS011;5992;52.744;6.898;2023-04-29T06:49:00;9.27;;;7.53;;
11865;SDS011;5992;52.744;6.898;2023-04-29T06:52:15;10.45;;;7.45;;
11865;SDS011;5992;52.744;6.898;2023-04-29T06:55:39;11.35;;;7.05;;
11865;SDS011;5992;52.744;6.898;2023-04-29T06:58:40;9.45;;;7.50;;
11865;SDS011;5992;52.744;6.898;2023-04-29T07:01:54;12.40;;;8.40;;
11865;SDS011;5992;52.744;6.898;2023-04-29T07:05:07;9.50;;;6.63;;
11865;SDS011;5992;52.744;6.898;2023-04-29T07:08:21;10.35;;;7.35;;
11865;SDS011;5992;52.744;6.898;2023-04-29T07:11:33;10.05;;;7.60;;
11865;SDS011;5992;52.744;6.898;2023-04-29T07:14:48;10.03;;;7.40;;
11865;SDS011;5992;52.744;6.898;2023-04-29T07:17:48;10.75;;;7.60;;
11865;SDS011;5992;52.744;6.898;2023-04-29T07:21:02;10.67;;;7.87;;
11865;SDS011;5992;52.744;6.898;2023-04-29T07:24:16;11.07;;;8.03;;
11865;SDS011;5992;52.744;6.898;2023-04-29T07:27:42;12.10;;;7.20;;
11865;SDS011;5992;52.744;6.898;2023-04-29T07:30:54;8.97;;;6.97;;
11865;SDS011;5992;52.744;6.898;2023-04-29T07:34:08;12.35;;;7.05;;
11865;SDS011;5992;52.744;6.898;2023-04-29T07:37:21;14.65;;;7.30;;
11865;SDS011;5992;52.744;6.898;2023-04-29T07:40:46;10.10;;;7.90;;
11865;SDS011;5992;52.744;6.898;2023-04-29T07:43:59;12.13;;;8.10;;
11865;SDS011;5992;52.744;6.898;2023-04-29T07:47:12;9.60;;;6.87;;
11865;SDS011;5992;52.744;6.898;2023-04-29T07:50:24;12.57;;;7.37;;
11865;SDS011;5992;52.744;6.898;2023-04-29T07:53:37;9.85;;;7.15;;
11865;SDS011;5992;52.744;6.898;2023-04-29T07:56:51;11.65;;;7.55;;
11865;SDS011;5992;52.744;6.898;2023-04-29T08:00:16;9.30;;;6.73;;
11865;SDS011;5992;52.744;6.898;2023-04-29T08:03:29;10.50;;;8.00;;
11865;SDS011;5992;52.744;6.898;2023-04-29T08:06:42;10.30;;;7.10;;
11865;SDS011;5992;52.744;6.898;2023-04-29T08:09:56;8.00;;;6.60;;
11865;SDS011;5992;52.744;6.898;2023-04-29T08:13:10;9.10;;;6.50;;
11865;SDS011;5992;52.744;6.898;2023-04-29T08:16:34;7.80;;;6.60;;
11865;SDS011;5992;52.744;6.898;2023-04-29T08:19:47;9.85;;;6.10;;
11865;SDS011;5992;52.744;6.898;2023-04-29T08:23:00;6.60;;;5.90;;
11865;SDS011;5992;52.744;6.898;2023-04-29T08:26:04;8.20;;;6.25;;
11865;SDS011;5992;52.744;6.898;2023-04-29T08:29:31;8.23;;;6.10;;
11865;SDS011;5992;52.744;6.898;2023-04-29T08:32:44;8.10;;;5.80;;
11865;SDS011;5992;52.744;6.898;2023-04-29T08:35:57;7.60;;;5.90;;
11865;SDS011;5992;52.744;6.898;2023-04-29T08:39:09;5.90;;;5.30;;
11865;SDS011;5992;52.744;6.898;2023-04-29T08:42:27;9.25;;;6.10;;
11865;SDS011;5992;52.744;6.898;2023-04-29T08:45:40;9.13;;;6.20;;
11865;SDS011;5992;52.744;6.898;2023-04-29T08:49:05;8.85;;;6.30;;
11865;SDS011;5992;52.744;6.898;2023-04-29T08:52:29;7.57;;;5.10;;
11865;SDS011;5992;52.744;6.898;2023-04-29T08:55:54;7.75;;;5.50;;
11865;SDS011;5992;52.744;6.898;2023-04-29T08:59:08;6.23;;;5.03;;
11865;SDS011;5992;52.744;6.898;2023-04-29T09:02:31;6.43;;;5.83;;
11865;SDS011;5992;52.744;6.898;2023-04-29T09:05:44;6.00;;;5.30;;
11865;SDS011;5992;52.744;6.898;2023-04-29T09:09:09;5.70;;;5.03;;
11865;SDS011;5992;52.744;6.898;2023-04-29T09:12:21;6.73;;;5.60;;
11865;SDS011;5992;52.744;6.898;2023-04-29T09:15:49;6.20;;;5.40;;
11865;SDS011;5992;52.744;6.898;2023-04-29T09:19:02;5.80;;;5.30;;
11865;SDS011;5992;52.744;6.898;2023-04-29T09:22:27;6.27;;;5.57;;
11865;SDS011;5992;52.744;6.898;2023-04-29T09:25:39;6.90;;;5.20;;
11865;SDS011;5992;52.744;6.898;2023-04-29T09:29:05;6.47;;;4.80;;
11865;SDS011;5992;52.744;6.898;2023-04-29T09:32:18;5.00;;;4.27;;
11865;SDS011;5992;52.744;6.898;2023-04-29T09:35:42;7.20;;;5.07;;
11865;SDS011;5992;52.744;6.898;2023-04-29T09:38:55;6.03;;;5.03;;
11865;SDS011;5992;52.744;6.898;2023-04-29T09:42:08;6.57;;;5.27;;
11865;SDS011;5992;52.744;6.898;2023-04-29T09:45:09;5.23;;;4.37;;
11865;SDS011;5992;52.744;6.898;2023-04-29T09:48:22;8.30;;;5.17;;
11865;SDS011;5992;52.744;6.898;2023-04-29T09:51:36;6.70;;;4.90;;
11865;SDS011;5992;52.744;6.898;2023-04-29T09:55:04;5.47;;;4.20;;
11865;SDS011;5992;52.744;6.898;2023-04-29T09:58:20;5.10;;;4.60;;
11865;SDS011;5992;52.744;6.898;2023-04-29T10:01:47;4.77;;;4.17;;
11865;SDS011;5992;52.744;6.898;2023-04-29T10:05:11;6.27;;;4.17;;
11865;SDS011;5992;52.744;6.898;2023-04-29T10:08:25;4.60;;;3.97;;
11865;SDS011;5992;52.744;6.898;2023-04-29T10:11:52;4.70;;;4.17;;
11865;SDS011;5992;52.744;6.898;2023-04-29T10:15:04;6.93;;;4.53;;
11865;SDS011;5992;52.744;6.898;2023-04-29T10:18:29;4.77;;;4.23;;
11865;SDS011;5992;52.744;6.898;2023-04-29T10:21:41;4.43;;;3.87;;
11865;SDS011;5992;52.744;6.898;2023-04-29T10:25:08;5.73;;;4.20;;
11865;SDS011;5992;52.744;6.898;2023-04-29T10:28:20;6.97;;;4.43;;
11865;SDS011;5992;52.744;6.898;2023-04-29T10:31:42;4.53;;;4.10;;
11865;SDS011;5992;52.744;6.898;2023-04-29T10:34:54;5.23;;;4.43;;
11865;SDS011;5992;52.744;6.898;2023-04-29T10:38:19;5.50;;;3.70;;
11865;SDS011;5992;52.744;6.898;2023-04-29T10:41:34;4.37;;;3.97;;
11865;SDS011;5992;52.744;6.898;2023-04-29T10:45:20;4.37;;;4.00;;
11865;SDS011;5992;52.744;6.898;2023-04-29T10:48:32;3.93;;;3.63;;
11865;SDS011;5992;52.744;6.898;2023-04-29T10:51:45;4.93;;;3.87;;
11865;SDS011;5992;52.744;6.898;2023-04-29T10:54:56;4.15;;;3.80;;
11865;SDS011;5992;52.744;6.898;2023-04-29T10:58:42;5.30;;;3.80;;
11865;SDS011;5992;52.744;6.898;2023-04-29T11:01:54;4.13;;;3.73;;
11865;SDS011;5992;52.744;6.898;2023-04-29T11:05:08;4.23;;;3.80;;
11865;SDS011;5992;52.744;6.898;2023-04-29T11:08:22;5.27;;;4.40;;
11865;SDS011;5992;52.744;6.898;2023-04-29T11:11:48;6.13;;;3.90;;
11865;SDS011;5992;52.744;6.898;2023-04-29T11:15:01;4.43;;;3.77;;
11865;SDS011;5992;52.744;6.898;2023-04-29T11:18:25;4.10;;;3.60;;
11865;SDS011;5992;52.744;6.898;2023-04-29T11:21:40;5.53;;;3.90;;
11865;SDS011;5992;52.744;6.898;2023-04-29T11:25:05;5.43;;;3.73;;
11865;SDS011;5992;52.744;6.898;2023-04-29T11:28:17;4.10;;;3.70;;
11865;SDS011;5992;52.744;6.898;2023-04-29T11:31:43;4.77;;;4.00;;
11865;SDS011;5992;52.744;6.898;2023-04-29T11:35:06;4.10;;;3.70;;
11865;SDS011;5992;52.744;6.898;2023-04-29T11:43:06;5.97;;;3.48;;
11865;SDS011;5992;52.744;6.898;2023-04-29T11:46:30;4.50;;;4.10;;
11865;SDS011;5992;52.744;6.898;2023-04-29T11:49:46;5.77;;;4.00;;
11865;SDS011;5992;52.744;6.898;2023-04-29T11:53:05;4.00;;;3.60;;
11865;SDS011;5992;52.744;6.898;2023-04-29T11:56:21;5.43;;;3.50;;
11865;SDS011;5992;52.744;6.898;2023-04-29T11:59:55;4.20;;;3.50;;
11865;SDS011;5992;52.744;6.898;2023-04-29T12:03:34;4.23;;;3.50;;
11865;SDS011;5992;52.744;6.898;2023-04-29T12:06:38;3.67;;;3.30;;
11865;SDS011;5992;52.744;6.898;2023-04-29T12:09:54;3.37;;;3.07;;
11865;SDS011;5992;52.744;6.898;2023-04-29T12:13:01;4.10;;;3.17;;
11865;SDS011;5992;52.744;6.898;2023-04-29T12:16:43;3.03;;;2.73;;
11865;SDS011;5992;52.744;6.898;2023-04-29T12:20:23;4.05;;;3.45;;
11865;SDS011;5992;52.744;6.898;2023-04-29T12:23:42;4.95;;;3.05;;
11865;SDS011;5992;52.744;6.898;2023-04-29T12:26:59;3.23;;;3.03;;
11865;SDS011;5992;52.744;6.898;2023-04-29T12:30:33;4.07;;;3.63;;
11865;SDS011;5992;52.744;6.898;2023-04-29T12:34:03;4.10;;;3.47;;
11865;SDS011;5992;52.744;6.898;2023-04-29T12:37:32;5.87;;;3.60;;
11865;SDS011;5992;52.744;6.898;2023-04-29T12:40:48;7.70;;;4.37;;
11865;SDS011;5992;52.744;6.898;2023-04-29T12:44:16;3.83;;;3.20;;
11865;SDS011;5992;52.744;6.898;2023-04-29T12:47:20;3.80;;;3.40;;
11865;SDS011;5992;52.744;6.898;2023-04-29T12:50:39;5.60;;;3.70;;
11865;SDS011;5992;52.744;6.898;2023-04-29T12:53:54;8.90;;;3.50;;
11865;SDS011;5992;52.744;6.898;2023-04-29T12:57:16;4.37;;;3.50;;
11865;SDS011;5992;52.744;6.898;2023-04-29T13:00:20;5.20;;;3.03;;
11865;SDS011;5992;52.744;6.898;2023-04-29T13:03:39;8.25;;;3.15;;
11865;SDS011;5992;52.744;6.898;2023-04-29T13:06:45;7.65;;;2.85;;
11865;SDS011;5992;52.744;6.898;2023-04-29T13:10:22;7.77;;;2.93;;
11865;SDS011;5992;52.744;6.898;2023-04-29T13:14:00;4.37;;;2.43;;
11865;SDS011;5992;52.744;6.898;2023-04-29T13:17:42;4.80;;;2.90;;
11865;SDS011;5992;52.744;6.898;2023-04-29T13:20:46;4.93;;;3.23;;
11865;SDS011;5992;52.744;6.898;2023-04-29T13:24:07;2.15;;;2.05;;
11865;SDS011;5992;52.744;6.898;2023-04-29T13:27:23;2.75;;;2.40;;
11865;SDS011;5992;52.744;6.898;2023-04-29T13:30:54;2.65;;;2.45;;
11865;SDS011;5992;52.744;6.898;2023-04-29T13:33:58;2.60;;;2.37;;
11865;SDS011;5992;52.744;6.898;2023-04-29T13:37:15;3.90;;;1.93;;
11865;SDS011;5992;52.744;6.898;2023-04-29T13:40:33;3.43;;;2.33;;
11865;SDS011;5992;52.744;6.898;2023-04-29T13:44:00;2.10;;;2.00;;
11865;SDS011;5992;52.744;6.898;2023-04-29T13:47:04;3.25;;;1.90;;
11865;SDS011;5992;52.744;6.898;2023-04-29T13:50:29;3.23;;;2.07;;
11865;SDS011;5992;52.744;6.898;2023-04-29T13:54:05;2.00;;;1.47;;
11865;SDS011;5992;52.744;6.898;2023-04-29T13:57:26;2.30;;;2.00;;
11865;SDS011;5992;52.744;6.898;2023-04-29T14:00:41;2.57;;;1.80;;
11865;SDS011;5992;52.744;6.898;2023-04-29T14:03:57;2.00;;;1.83;;
11865;SDS011;5992;52.744;6.898;2023-04-29T14:07:01;1.60;;;1.40;;
11865;SDS011;5992;52.744;6.898;2023-04-29T14:10:20;2.75;;;1.65;;
11865;SDS011;5992;52.744;6.898;2023-04-29T14:13:30;2.57;;;1.57;;
11865;SDS011;5992;52.744;6.898;2023-04-29T14:17:09;2.03;;;1.80;;
11865;SDS011;5992;52.744;6.898;2023-04-29T14:20:13;4.30;;;1.50;;
11865;SDS011;5992;52.744;6.898;2023-04-29T14:23:33;2.20;;;1.65;;
11865;SDS011;5992;52.744;6.898;2023-04-29T14:26:49;2.97;;;1.60;;
11865;SDS011;5992;52.744;6.898;2023-04-29T14:30:33;1.90;;;1.50;;
11865;SDS011;5992;52.744;6.898;2023-04-29T14:34:10;2.70;;;1.50;;
11865;SDS011;5992;52.744;6.898;2023-04-29T14:37:30;2.10;;;1.90;;
11865;SDS011;5992;52.744;6.898;2023-04-29T14:41:10;2.27;;;2.07;;
11865;SDS011;5992;52.744;6.898;2023-04-29T14:44:50;2.15;;;1.70;;
11865;SDS011;5992;52.744;6.898;2023-04-29T14:48:33;2.03;;;1.87;;
11865;SDS011;5992;52.744;6.898;2023-04-29T14:52:10;1.80;;;1.70;;
11865;SDS011;5992;52.744;6.898;2023-04-29T14:55:13;2.00;;;1.50;;
11865;SDS011;5992;52.744;6.898;2023-04-29T14:58:30;2.17;;;1.40;;
11865;SDS011;5992;52.744;6.898;2023-04-29T15:01:34;1.53;;;1.40;;
11865;SDS011;5992;52.744;6.898;2023-04-29T15:05:07;1.53;;;1.40;;
11865;SDS011;5992;52.744;6.898;2023-04-29T15:08:23;1.17;;;1.13;;
11865;SDS011;5992;52.744;6.898;2023-04-29T15:11:42;1.17;;;1.13;;
11865;SDS011;5992;52.744;6.898;2023-04-29T15:14:45;2.57;;;1.40;;
11865;SDS011;5992;52.744;6.898;2023-04-29T15:18:02;1.80;;;1.40;;
11865;SDS011;5992;52.744;6.898;2023-04-29T15:21:07;1.70;;;1.60;;
11865;SDS011;5992;52.744;6.898;2023-04-29T15:24:39;1.90;;;1.37;;
11865;SDS011;5992;52.744;6.898;2023-04-29T15:27:46;1.95;;;1.30;;
11865;SDS011;5992;52.744;6.898;2023-04-29T15:31:16;2.23;;;1.53;;
11865;SDS011;5992;52.744;6.898;2023-04-29T15:34:42;2.10;;;1.40;;
11865;SDS011;5992;52.744;6.898;2023-04-29T15:38:10;2.20;;;1.30;;
11865;SDS011;5992;52.744;6.898;2023-04-29T15:41:26;1.83;;;1.70;;
11865;SDS011;5992;52.744;6.898;2023-04-29T15:44:54;1.90;;;1.80;;
11865;SDS011;5992;52.744;6.898;2023-04-29T15:47:58;1.85;;;1.70;;
11865;SDS011;5992;52.744;6.898;2023-04-29T15:51:14;2.57;;;1.67;;
11865;SDS011;5992;52.744;6.898;2023-04-29T15:54:19;3.13;;;2.10;;
11865;SDS011;5992;52.744;6.898;2023-04-29T15:57:47;2.33;;;1.77;;
11865;SDS011;5992;52.744;6.898;2023-04-29T16:00:51;3.53;;;2.00;;
11865;SDS011;5992;52.744;6.898;2023-04-29T16:04:11;2.23;;;2.13;;
11865;SDS011;5992;52.744;6.898;2023-04-29T16:07:15;2.30;;;2.10;;
11865;SDS011;5992;52.744;6.898;2023-04-29T16:10:45;1.90;;;1.80;;
11865;SDS011;5992;52.744;6.898;2023-04-29T16:14:08;2.53;;;2.30;;
11865;SDS011;5992;52.744;6.898;2023-04-29T16:17:41;3.70;;;2.37;;
11865;SDS011;5992;52.744;6.898;2023-04-29T16:21:21;2.97;;;2.57;;
11865;SDS011;5992;52.744;6.898;2023-04-29T16:25:01;2.57;;;2.37;;
11865;SDS011;5992;52.744;6.898;2023-04-29T16:28:06;2.93;;;2.73;;
11865;SDS011;5992;52.744;6.898;2023-04-29T16:31:40;3.10;;;2.80;;
11865;SDS011;5992;52.744;6.898;2023-04-29T16:34:44;2.57;;;2.37;;
11865;SDS011;5992;52.744;6.898;2023-04-29T16:38:03;3.07;;;2.70;;
11865;SDS011;5992;52.744;6.898;2023-04-29T16:41:07;2.63;;;2.43;;
11865;SDS011;5992;52.744;6.898;2023-04-29T16:44:27;4.60;;;2.90;;
11865;SDS011;5992;52.744;6.898;2023-04-29T16:47:43;3.20;;;2.90;;
11865;SDS011;5992;52.744;6.898;2023-04-29T16:51:12;5.67;;;2.30;;
11865;SDS011;5992;52.744;6.898;2023-04-29T16:54:28;2.60;;;2.40;;
11865;SDS011;5992;52.744;6.898;2023-04-29T16:57:47;3.17;;;2.50;;
11865;SDS011;5992;52.744;6.898;2023-04-29T17:00:53;3.80;;;2.63;;
11865;SDS011;5992;52.744;6.898;2023-04-29T17:04:33;2.67;;;2.47;;
11865;SDS011;5992;52.744;6.898;2023-04-29T17:08:03;4.40;;;2.57;;
11865;SDS011;5992;52.744;6.898;2023-04-29T17:11:31;2.80;;;2.50;;
11865;SDS011;5992;52.744;6.898;2023-04-29T17:14:35;3.37;;;2.73;;
11865;SDS011;5992;52.744;6.898;2023-04-29T17:17:53;2.77;;;2.50;;
11865;SDS011;5992;52.744;6.898;2023-04-29T17:21:11;2.60;;;2.40;;
11865;SDS011;5992;52.744;6.898;2023-04-29T17:24:30;4.67;;;2.87;;
11865;SDS011;5992;52.744;6.898;2023-04-29T17:27:38;3.77;;;2.40;;
11865;SDS011;5992;52.744;6.898;2023-04-29T17:31:17;2.40;;;2.20;;
11865;SDS011;5992;52.744;6.898;2023-04-29T17:35:01;2.40;;;2.20;;
11865;SDS011;5992;52.744;6.898;2023-04-29T17:38:42;2.53;;;2.33;;
11865;SDS011;5992;52.744;6.898;2023-04-29T17:41:46;2.10;;;2.00;;
11865;SDS011;5992;52.744;6.898;2023-04-29T17:45:05;1.80;;;1.70;;
11865;SDS011;5992;52.744;6.898;2023-04-29T17:48:22;1.87;;;1.77;;
11865;SDS011;5992;52.744;6.898;2023-04-29T17:51:43;1.75;;;1.65;;
11865;SDS011;5992;52.744;6.898;2023-04-29T17:54:58;1.90;;;1.80;;
11865;SDS011;5992;52.744;6.898;2023-04-29T17:58:17;2.03;;;1.60;;
11865;SDS011;5992;52.744;6.898;2023-04-29T18:01:21;1.90;;;1.80;;
11865;SDS011;5992;52.744;6.898;2023-04-29T18:04:40;1.70;;;1.60;;
11865;SDS011;5992;52.744;6.898;2023-04-29T18:07:46;2.17;;;1.97;;
11865;SDS011;5992;52.744;6.898;2023-04-29T18:11:19;2.93;;;1.97;;
11865;SDS011;5992;52.744;6.898;2023-04-29T18:14:23;2.03;;;1.80;;
11865;SDS011;5992;52.744;6.898;2023-04-29T18:17:42;2.47;;;1.93;;
11865;SDS011;5992;52.744;6.898;2023-04-29T18:20:46;1.73;;;1.60;;
11865;SDS011;5992;52.744;6.898;2023-04-29T18:24:04;2.60;;;1.97;;
11865;SDS011;5992;52.744;6.898;2023-04-29T18:27:46;3.33;;;2.10;;
11865;SDS011;5992;52.744;6.898;2023-04-29T18:31:33;2.23;;;1.97;;
11865;SDS011;5992;52.744;6.898;2023-04-29T18:34:40;1.87;;;1.77;;
11865;SDS011;5992;52.744;6.898;2023-04-29T18:37:59;2.70;;;2.10;;
11865;SDS011;5992;52.744;6.898;2023-04-29T18:41:05;2.03;;;1.90;;
11865;SDS011;5992;52.744;6.898;2023-04-29T18:44:35;2.20;;;2.00;;
11865;SDS011;5992;52.744;6.898;2023-04-29T18:47:39;2.13;;;2.00;;
11865;SDS011;5992;52.744;6.898;2023-04-29T18:50:58;2.17;;;1.97;;
11865;SDS011;5992;52.744;6.898;2023-04-29T18:54:02;2.20;;;2.03;;
11865;SDS011;5992;52.744;6.898;2023-04-29T18:57:20;2.45;;;2.25;;
11865;SDS011;5992;52.744;6.898;2023-04-29T19:00:41;2.33;;;2.13;;
11865;SDS011;5992;52.744;6.898;2023-04-29T19:04:12;2.20;;;2.00;;
11865;SDS011;5992;52.744;6.898;2023-04-29T19:07:28;2.53;;;1.97;;
11865;SDS011;5992;52.744;6.898;2023-04-29T19:10:44;1.70;;;1.60;;
11865;SDS011;5992;52.744;6.898;2023-04-29T19:13:50;2.20;;;2.00;;
11865;SDS011;5992;52.744;6.898;2023-04-29T19:17:20;1.75;;;1.65;;
11865;SDS011;5992;52.744;6.898;2023-04-29T19:20:24;2.10;;;2.00;;
11865;SDS011;5992;52.744;6.898;2023-04-29T19:23:53;2.03;;;1.90;;
11865;SDS011;5992;52.744;6.898;2023-04-29T19:26:58;2.07;;;1.97;;
11865;SDS011;5992;52.744;6.898;2023-04-29T19:30:44;1.90;;;1.80;;
11865;SDS011;5992;52.744;6.898;2023-04-29T19:34:02;1.80;;;1.70;;
11865;SDS011;5992;52.744;6.898;2023-04-29T19:37:21;1.80;;;1.70;;
11865;SDS011;5992;52.744;6.898;2023-04-29T19:40:25;1.70;;;1.60;;
11865;SDS011;5992;52.744;6.898;2023-04-29T19:43:44;1.70;;;1.60;;
11865;SDS011;5992;52.744;6.898;2023-04-29T19:46:50;1.70;;;1.60;;
11865;SDS011;5992;52.744;6.898;2023-04-29T19:50:27;2.63;;;2.10;;
11865;SDS011;5992;52.744;6.898;2023-04-29T19:53:54;1.93;;;1.83;;
11865;SDS011;5992;52.744;6.898;2023-04-29T19:57:30;2.23;;;2.03;;
11865;SDS011;5992;52.744;6.898;2023-04-29T20:00:34;2.10;;;2.00;;
11865;SDS011;5992;52.744;6.898;2023-04-29T20:04:05;2.00;;;1.90;;
11865;SDS011;5992;52.744;6.898;2023-04-29T20:07:20;1.80;;;1.70;;